Yahata Maru — JL6477 — position and weather

sailwx.info

Track history (hours):
 
Tides and Currents Weather Stations Pressure Air Temp Water Temp Dewpoint Dewpoint Depression Visibility Wind Speed Wind Dir Waves Ship Positions

Yahata Maru

Last reported at 2017-May-20 10:51 UTC. Time now 2017-May-23 14:52 UTC.
Position N 34°34' E 134°48'.

Length 149 m; draft 4.7 m.

Type: Other ship. MMSI: 431400594.

Date/timePositionNaut miles runAvg speedWind from/ knotsBaromVisibWave heightAir tempDewpointWater temp
2017-May-20 10:51N 34°34' E 134°48'3 9.5
2017-May-20 10:29N 34°35' E 134°52'4 9.1
2017-May-20 10:00N 34°37' E 134°57'5 9.0
2017-May-20 09:30N 34°37' E 135°02'4 8.6
2017-May-20 09:00N 34°36' E 135°08'5 9.2
2017-May-20 08:30N 34°36' E 135°13'4 9.0
2017-May-20 08:00N 34°38' E 135°18'4 8.0
2017-May-20 07:30N 34°41' E 135°22'2 4.9
2017-May-20 07:00N 34°43' E 135°21'0 0.1
2017-May-20 06:30N 34°43' E 135°21'0 0.0
2017-May-20 05:54N 34°43' E 135°21'0 0.0
2017-May-20 05:24N 34°43' E 135°21'0 0.0
2017-May-20 05:00N 34°43' E 135°21'0 0.0
2017-May-20 04:24N 34°43' E 135°21'0 0.0
2017-May-20 04:00N 34°43' E 135°21'0 0.0
2017-May-20 03:30N 34°43' E 135°21'0 0.0
2017-May-20 02:54N 34°43' E 135°21'0 0.0
2017-May-20 02:30N 34°43' E 135°21'1 2.5
2017-May-20 02:00N 34°42' E 135°21'4 7.0
2017-May-20 01:30N 34°39' E 135°19'5 9.3
2017-May-20 01:00N 34°35' E 135°16'5 9.5
2017-May-20 00:30N 34°31' E 135°13'4 8.0
2017-May-20 00:00N 34°28' E 135°09'4 8.4
2017-May-19 23:30N 34°25' E 135°06'5 8.8
2017-May-19 22:56N 34°21' E 135°02'4 8.5
2017-May-19 22:30N 34°18' E 134°60'4 8.6
2017-May-19 21:59N 34°14' E 134°59'5 9.6
2017-May-19 21:30N 34°09' E 135°00'5 9.6
2017-May-19 20:59N 34°04' E 135°01'239 6.0
2017-May-18 04:50N 35°07' E 139°41'410.4
2017-May-18 04:28N 35°10' E 139°44'510.6
2017-May-18 04:00N 35°14' E 139°46'510.5
2017-May-18 03:30N 35°19' E 139°43'5 9.6
2017-May-18 03:00N 35°24' E 139°42'4 8.3
2017-May-18 02:30N 35°28' E 139°43'0 0.2
2017-May-18 01:58N 35°28' E 139°43'0 0.0
2017-May-18 01:28N 35°28' E 139°43'0 0.0
2017-May-18 00:58N 35°28' E 139°43'0 0.0
2017-May-18 00:28N 35°28' E 139°43'0 0.0
2017-May-17 23:58N 35°28' E 139°43'0 0.2
2017-May-17 23:30N 35°28' E 139°43'2 4.2
2017-May-17 23:00N 35°27' E 139°45'4 7.3
2017-May-17 22:30N 35°28' E 139°49'4 8.9
2017-May-17 22:00N 35°31' E 139°54'5 9.5
2017-May-17 21:30N 35°33' E 139°58'6 7.8
2017-May-17 20:45N 35°33' E 140°06'0 0.0
2017-May-17 10:16N 35°33' E 140°06'2 7.9
2017-May-17 10:00N 35°34' E 140°03'2 1.2
2017-May-17 08:09N 35°33' E 140°01'0 0.0
2017-May-17 07:39N 35°33' E 140°01'0 0.0
2017-May-17 07:15N 35°33' E 140°01'0 0.0
2017-May-17 06:42N 35°33' E 140°01'0 0.0
2017-May-17 06:24N 35°33' E 140°01'0 0.0
2017-May-17 06:00N 35°33' E 140°01'0 0.0
2017-May-17 05:12N 35°33' E 140°01'0 0.0
2017-May-17 04:54N 35°33' E 140°01'0 0.0
2017-May-17 04:27N 35°33' E 140°01'0 0.0
2017-May-17 03:28N 35°33' E 140°01'3 5.5
2017-May-17 03:00N 35°32' E 139°58'4 8.7
2017-May-17 02:31N 35°30' E 139°53'4 8.3
2017-May-17 02:00N 35°27' E 139°49'4 7.9
2017-May-17 01:30N 35°25' E 139°45'4 7.7
2017-May-17 01:00N 35°23' E 139°41'2 3.8
2017-May-17 00:31N 35°23' E 139°38'0 0.0
2017-May-16 23:59N 35°23' E 139°38'0 0.0
2017-May-16 23:29N 35°23' E 139°38'0 0.0
2017-May-16 22:59N 35°23' E 139°38'0 0.3
2017-May-16 22:30N 35°23' E 139°38'3 5.2
2017-May-16 22:00N 35°23' E 139°42'2 3.9
2017-May-16 21:28N 35°22' E 139°44'0 0.0
2017-May-16 20:58N 35°22' E 139°44'0 0.0
2017-May-16 20:28N 35°22' E 139°44'0 0.0
2017-May-16 19:58N 35°22' E 139°44'0 0.0
2017-May-16 19:28N 35°22' E 139°44'0 0.1
2017-May-16 18:58N 35°22' E 139°44'0 0.0
2017-May-16 18:28N 35°22' E 139°44'0 0.1
2017-May-16 17:55N 35°22' E 139°44'0 0.0
2017-May-16 17:28N 35°22' E 139°44'0 0.0
2017-May-16 16:58N 35°22' E 139°44'0 0.0
2017-May-16 16:28N 35°22' E 139°44'0 0.0
2017-May-16 15:55N 35°22' E 139°44'0 0.0
2017-May-16 15:28N 35°22' E 139°44'0 0.0
2017-May-16 14:58N 35°22' E 139°44'0 0.0
2017-May-16 14:28N 35°22' E 139°44'0 0.0
2017-May-16 13:28N 35°22' E 139°44'0 0.0
2017-May-16 12:58N 35°22' E 139°44'0 0.0
2017-May-16 12:28N 35°22' E 139°44'0 0.2
2017-May-16 11:58N 35°22' E 139°44'0 0.1
2017-May-16 11:28N 35°22' E 139°44'0 0.1
2017-May-16 10:58N 35°22' E 139°44'0 0.3
2017-May-16 10:31N 35°22' E 139°44'0 0.3
2017-May-16 10:01N 35°22' E 139°44'0 1.0
2017-May-16 09:30N 35°22' E 139°44'4 8.7
2017-May-16 09:00N 35°17' E 139°45'5 9.6
2017-May-16 08:30N 35°13' E 139°47'5 9.8
2017-May-16 08:00N 35°08' E 139°45'  
2017-May-12 11:42N 34°35' E 134°51'313.2
2017-May-12 11:30N 34°36' E 134°54'612.0
2017-May-12 11:00N 34°37' E 135°01'510.3
2017-May-12 10:30N 34°35' E 135°07'5 9.5
2017-May-12 10:00N 34°36' E 135°13'5 9.4
2017-May-12 09:30N 34°36' E 135°18'5 9.3
2017-May-12 09:01N 34°36' E 135°24'2 3.1
2017-May-12 08:30N 34°35' E 135°26'0 0.0
2017-May-12 07:59N 34°35' E 135°26'0 0.3
2017-May-12 07:31N 34°35' E 135°25'3 6.2
2017-May-12 07:00N 34°36' E 135°22'2 3.6
2017-May-12 06:26N 34°36' E 135°19'0 0.0
2017-May-12 05:56N 34°36' E 135°19'0 0.1
2017-May-12 05:20N 34°36' E 135°19'0 0.0
2017-May-12 04:50N 34°36' E 135°19'0 0.1
2017-May-12 04:14N 34°36' E 135°19'0 0.0
2017-May-12 03:56N 34°36' E 135°19'0 0.2
2017-May-12 03:26N 34°36' E 135°19'0 0.8
2017-May-12 03:00N 34°36' E 135°19'4 8.8
2017-May-12 02:30N 34°40' E 135°22'3 6.0
2017-May-12 02:00N 34°43' E 135°21'0 0.2
2017-May-12 01:28N 34°43' E 135°21'0 0.0
2017-May-12 00:58N 34°43' E 135°21'0 0.0
2017-May-12 00:28N 34°43' E 135°21'0 0.0
2017-May-11 23:58N 34°43' E 135°21'0 0.0
2017-May-11 23:28N 34°43' E 135°21'0 0.0
2017-May-11 22:58N 34°43' E 135°21'0 0.0
2017-May-11 22:22N 34°43' E 135°21'0 0.0
2017-May-11 21:58N 34°43' E 135°21'0 0.0
2017-May-11 21:28N 34°43' E 135°21'0 0.0
2017-May-11 20:58N 34°43' E 135°21'0 0.0
2017-May-11 20:28N 34°43' E 135°21'0 0.0
2017-May-11 19:58N 34°43' E 135°21'0 0.0
2017-May-11 19:16N 34°43' E 135°21'0 0.0
2017-May-11 18:58N 34°43' E 135°21'0 0.0
2017-May-11 18:28N 34°43' E 135°21'0 0.0
2017-May-11 17:52N 34°43' E 135°21'0 0.0
2017-May-11 17:28N 34°43' E 135°21'0 0.0
2017-May-11 16:58N 34°43' E 135°21'0 0.0
2017-May-11 16:28N 34°43' E 135°21'0 0.0
2017-May-11 15:52N 34°43' E 135°21'0 0.0
2017-May-11 15:30N 34°43' E 135°21'2 3.3
2017-May-11 15:00N 34°42' E 135°20'10 9.7
2017-May-11 14:00N 34°34' E 135°13'510.5
2017-May-11 13:30N 34°29' E 135°11'510.9
2017-May-11 13:00N 34°25' E 135°06'511.0
2017-May-11 12:30N 34°21' E 135°02'611.0
2017-May-11 12:00N 34°15' E 134°59'511.0
2017-May-11 11:30N 34°10' E 135°00'510.9
2017-May-11 11:00N 34°05' E 135°01'  
Track history (hours):
 
Tides and Currents Weather Stations Pressure Air Temp Water Temp Dewpoint Dewpoint Depression Visibility Wind Speed Wind Dir Waves Ship Positions

Yahata Maru

Last reported at 2017-May-20 10:51 UTC. Time now 2017-May-23 14:52 UTC.
Position N 34°34' E 134°48'.

Length 149 m; draft 4.7 m.

Type: Other ship. MMSI: 431400594.

Date/timePositionNaut miles runAvg speedWind from/ knotsBaromVisibWave heightAir tempDewpointWater temp
2017-May-20 10:51N 34°34' E 134°48'3 9.5
2017-May-20 10:29N 34°35' E 134°52'4 9.1
2017-May-20 10:00N 34°37' E 134°57'5 9.0
2017-May-20 09:30N 34°37' E 135°02'4 8.6
2017-May-20 09:00N 34°36' E 135°08'5 9.2
2017-May-20 08:30N 34°36' E 135°13'4 9.0
2017-May-20 08:00N 34°38' E 135°18'4 8.0
2017-May-20 07:30N 34°41' E 135°22'2 4.9
2017-May-20 07:00N 34°43' E 135°21'0 0.1
2017-May-20 06:30N 34°43' E 135°21'0 0.0
2017-May-20 05:54N 34°43' E 135°21'0 0.0
2017-May-20 05:24N 34°43' E 135°21'0 0.0
2017-May-20 05:00N 34°43' E 135°21'0 0.0
2017-May-20 04:24N 34°43' E 135°21'0 0.0
2017-May-20 04:00N 34°43' E 135°21'0 0.0
2017-May-20 03:30N 34°43' E 135°21'0 0.0
2017-May-20 02:54N 34°43' E 135°21'0 0.0
2017-May-20 02:30N 34°43' E 135°21'1 2.5
2017-May-20 02:00N 34°42' E 135°21'4 7.0
2017-May-20 01:30N 34°39' E 135°19'5 9.3
2017-May-20 01:00N 34°35' E 135°16'5 9.5
2017-May-20 00:30N 34°31' E 135°13'4 8.0
2017-May-20 00:00N 34°28' E 135°09'4 8.4
2017-May-19 23:30N 34°25' E 135°06'5 8.8
2017-May-19 22:56N 34°21' E 135°02'4 8.5
2017-May-19 22:30N 34°18' E 134°60'4 8.6
2017-May-19 21:59N 34°14' E 134°59'5 9.6
2017-May-19 21:30N 34°09' E 135°00'5 9.6
2017-May-19 20:59N 34°04' E 135°01'239 6.0
2017-May-18 04:50N 35°07' E 139°41'410.4
2017-May-18 04:28N 35°10' E 139°44'510.6
2017-May-18 04:00N 35°14' E 139°46'510.5
2017-May-18 03:30N 35°19' E 139°43'5 9.6
2017-May-18 03:00N 35°24' E 139°42'4 8.3
2017-May-18 02:30N 35°28' E 139°43'0 0.2
2017-May-18 01:58N 35°28' E 139°43'0 0.0
2017-May-18 01:28N 35°28' E 139°43'0 0.0
2017-May-18 00:58N 35°28' E 139°43'0 0.0
2017-May-18 00:28N 35°28' E 139°43'0 0.0
2017-May-17 23:58N 35°28' E 139°43'0 0.2
2017-May-17 23:30N 35°28' E 139°43'2 4.2
2017-May-17 23:00N 35°27' E 139°45'4 7.3
2017-May-17 22:30N 35°28' E 139°49'4 8.9
2017-May-17 22:00N 35°31' E 139°54'5 9.5
2017-May-17 21:30N 35°33' E 139°58'6 7.8
2017-May-17 20:45N 35°33' E 140°06'0 0.0
2017-May-17 10:16N 35°33' E 140°06'2 7.9
2017-May-17 10:00N 35°34' E 140°03'2 1.2
2017-May-17 08:09N 35°33' E 140°01'0 0.0
2017-May-17 07:39N 35°33' E 140°01'0 0.0
2017-May-17 07:15N 35°33' E 140°01'0 0.0
2017-May-17 06:42N 35°33' E 140°01'0 0.0
2017-May-17 06:24N 35°33' E 140°01'0 0.0
2017-May-17 06:00N 35°33' E 140°01'0 0.0
2017-May-17 05:12N 35°33' E 140°01'0 0.0
2017-May-17 04:54N 35°33' E 140°01'0 0.0
2017-May-17 04:27N 35°33' E 140°01'0 0.0
2017-May-17 03:28N 35°33' E 140°01'3 5.5
2017-May-17 03:00N 35°32' E 139°58'4 8.7
2017-May-17 02:31N 35°30' E 139°53'4 8.3
2017-May-17 02:00N 35°27' E 139°49'4 7.9
2017-May-17 01:30N 35°25' E 139°45'4 7.7
2017-May-17 01:00N 35°23' E 139°41'2 3.8
2017-May-17 00:31N 35°23' E 139°38'0 0.0
2017-May-16 23:59N 35°23' E 139°38'0 0.0
2017-May-16 23:29N 35°23' E 139°38'0 0.0
2017-May-16 22:59N 35°23' E 139°38'0 0.3
2017-May-16 22:30N 35°23' E 139°38'3 5.2
2017-May-16 22:00N 35°23' E 139°42'2 3.9
2017-May-16 21:28N 35°22' E 139°44'0 0.0
2017-May-16 20:58N 35°22' E 139°44'0 0.0
2017-May-16 20:28N 35°22' E 139°44'0 0.0
2017-May-16 19:58N 35°22' E 139°44'0 0.0
2017-May-16 19:28N 35°22' E 139°44'0 0.1
2017-May-16 18:58N 35°22' E 139°44'0 0.0
2017-May-16 18:28N 35°22' E 139°44'0 0.1
2017-May-16 17:55N 35°22' E 139°44'0 0.0
2017-May-16 17:28N 35°22' E 139°44'0 0.0
2017-May-16 16:58N 35°22' E 139°44'0 0.0
2017-May-16 16:28N 35°22' E 139°44'0 0.0
2017-May-16 15:55N 35°22' E 139°44'0 0.0
2017-May-16 15:28N 35°22' E 139°44'0 0.0
2017-May-16 14:58N 35°22' E 139°44'0 0.0
2017-May-16 14:28N 35°22' E 139°44'0 0.0
2017-May-16 13:28N 35°22' E 139°44'0 0.0
2017-May-16 12:58N 35°22' E 139°44'0 0.0
2017-May-16 12:28N 35°22' E 139°44'0 0.2
2017-May-16 11:58N 35°22' E 139°44'0 0.1
2017-May-16 11:28N 35°22' E 139°44'0 0.1
2017-May-16 10:58N 35°22' E 139°44'0 0.3
2017-May-16 10:31N 35°22' E 139°44'0 0.3
2017-May-16 10:01N 35°22' E 139°44'0 1.0
2017-May-16 09:30N 35°22' E 139°44'4 8.7
2017-May-16 09:00N 35°17' E 139°45'5 9.6
2017-May-16 08:30N 35°13' E 139°47'5 9.8
2017-May-16 08:00N 35°08' E 139°45'  
2017-May-12 11:42N 34°35' E 134°51'313.2
2017-May-12 11:30N 34°36' E 134°54'612.0
2017-May-12 11:00N 34°37' E 135°01'510.3
2017-May-12 10:30N 34°35' E 135°07'5 9.5
2017-May-12 10:00N 34°36' E 135°13'5 9.4
2017-May-12 09:30N 34°36' E 135°18'5 9.3
2017-May-12 09:01N 34°36' E 135°24'2 3.1
2017-May-12 08:30N 34°35' E 135°26'0 0.0
2017-May-12 07:59N 34°35' E 135°26'0 0.3
2017-May-12 07:31N 34°35' E 135°25'3 6.2
2017-May-12 07:00N 34°36' E 135°22'2 3.6
2017-May-12 06:26N 34°36' E 135°19'0 0.0
2017-May-12 05:56N 34°36' E 135°19'0 0.1
2017-May-12 05:20N 34°36' E 135°19'0 0.0
2017-May-12 04:50N 34°36' E 135°19'0 0.1
2017-May-12 04:14N 34°36' E 135°19'0 0.0
2017-May-12 03:56N 34°36' E 135°19'0 0.2
2017-May-12 03:26N 34°36' E 135°19'0 0.8
2017-May-12 03:00N 34°36' E 135°19'4 8.8
2017-May-12 02:30N 34°40' E 135°22'3 6.0
2017-May-12 02:00N 34°43' E 135°21'0 0.2
2017-May-12 01:28N 34°43' E 135°21'0 0.0
2017-May-12 00:58N 34°43' E 135°21'0 0.0
2017-May-12 00:28N 34°43' E 135°21'0 0.0
2017-May-11 23:58N 34°43' E 135°21'0 0.0
2017-May-11 23:28N 34°43' E 135°21'0 0.0
2017-May-11 22:58N 34°43' E 135°21'0 0.0
2017-May-11 22:22N 34°43' E 135°21'0 0.0
2017-May-11 21:58N 34°43' E 135°21'0 0.0
2017-May-11 21:28N 34°43' E 135°21'0 0.0
2017-May-11 20:58N 34°43' E 135°21'0 0.0
2017-May-11 20:28N 34°43' E 135°21'0 0.0
2017-May-11 19:58N 34°43' E 135°21'0 0.0
2017-May-11 19:16N 34°43' E 135°21'0 0.0
2017-May-11 18:58N 34°43' E 135°21'0 0.0
2017-May-11 18:28N 34°43' E 135°21'0 0.0
2017-May-11 17:52N 34°43' E 135°21'0 0.0
2017-May-11 17:28N 34°43' E 135°21'0 0.0
2017-May-11 16:58N 34°43' E 135°21'0 0.0
2017-May-11 16:28N 34°43' E 135°21'0 0.0
2017-May-11 15:52N 34°43' E 135°21'0 0.0
2017-May-11 15:30N 34°43' E 135°21'2 3.3
2017-May-11 15:00N 34°42' E 135°20'10 9.7
2017-May-11 14:00N 34°34' E 135°13'510.5
2017-May-11 13:30N 34°29' E 135°11'510.9
2017-May-11 13:00N 34°25' E 135°06'511.0
2017-May-11 12:30N 34°21' E 135°02'611.0
2017-May-11 12:00N 34°15' E 134°59'511.0
2017-May-11 11:30N 34°10' E 135°00'510.9
2017-May-11 11:00N 34°05' E 135°01'  

Dump ship's entire track history